sensor_id;sensor_type;location;lat;lon;timestamp;pressure;altitude;pressure_sealevel;temperature;humidity
75497;BME280;64074;47.540;19.072;2023-05-24T00:01:19;100271.56;;;17.76;75.44
75497;BME280;64074;47.540;19.072;2023-05-24T00:04:40;100275.59;;;18.19;73.93
75497;BME280;64074;47.540;19.072;2023-05-24T00:08:12;100271.50;;;18.12;73.53
75497;BME280;64074;47.540;19.072;2023-05-24T00:11:18;100266.16;;;18.32;73.04
75497;BME280;64074;47.540;19.072;2023-05-24T00:14:22;100262.03;;;18.38;72.95
75497;BME280;64074;47.540;19.072;2023-05-24T00:17:31;100262.75;;;18.35;73.47
75497;BME280;64074;47.540;19.072;2023-05-24T00:20:48;100260.88;;;18.11;74.58
75497;BME280;64074;47.540;19.072;2023-05-24T00:23:53;100249.84;;;18.51;72.78
75497;BME280;64074;47.540;19.072;2023-05-24T00:27:03;100256.00;;;18.60;72.43
75497;BME280;64074;47.540;19.072;2023-05-24T00:30:07;100255.00;;;18.25;73.66
75497;BME280;64074;47.540;19.072;2023-05-24T00:33:11;100255.50;;;18.02;74.66
75497;BME280;64074;47.540;19.072;2023-05-24T00:36:15;100246.81;;;18.12;74.88
75497;BME280;64074;47.540;19.072;2023-05-24T00:39:25;100248.34;;;18.54;72.90
75497;BME280;64074;47.540;19.072;2023-05-24T00:42:46;100250.63;;;18.36;73.19
75497;BME280;64074;47.540;19.072;2023-05-24T00:46:11;100251.53;;;18.28;73.80
75497;BME280;64074;47.540;19.072;2023-05-24T00:49:31;100246.47;;;18.70;72.69
75497;BME280;64074;47.540;19.072;2023-05-24T00:52:52;100242.94;;;18.57;72.13
75497;BME280;64074;47.540;19.072;2023-05-24T00:56:12;100249.13;;;18.54;71.70
75497;BME280;64074;47.540;19.072;2023-05-24T00:59:22;100249.13;;;18.54;71.80
75497;BME280;64074;47.540;19.072;2023-05-24T01:02:56;100257.63;;;18.77;71.05
75497;BME280;64074;47.540;19.072;2023-05-24T01:06:19;100255.50;;;18.70;71.12
75497;BME280;64074;47.540;19.072;2023-05-24T01:10:08;100254.34;;;18.43;71.67
75497;BME280;64074;47.540;19.072;2023-05-24T01:13:47;100258.69;;;18.72;70.37
75497;BME280;64074;47.540;19.072;2023-05-24T01:17:05;100246.84;;;18.84;69.58
75497;BME280;64074;47.540;19.072;2023-05-24T01:20:16;100251.28;;;18.89;69.50
75497;BME280;64074;47.540;19.072;2023-05-24T01:27:35;100243.91;;;18.49;71.37
75497;BME280;64074;47.540;19.072;2023-05-24T01:30:59;100253.72;;;18.34;72.07
75497;BME280;64074;47.540;19.072;2023-05-24T01:34:03;100244.19;;;18.32;72.47
75497;BME280;64074;47.540;19.072;2023-05-24T01:37:07;100247.72;;;18.17;73.42
75497;BME280;64074;47.540;19.072;2023-05-24T01:40:10;100240.72;;;18.19;73.17
75497;BME280;64074;47.540;19.072;2023-05-24T01:43:32;100232.38;;;18.16;73.26
75497;BME280;64074;47.540;19.072;2023-05-24T01:46:43;100231.72;;;18.06;73.42
75497;BME280;64074;47.540;19.072;2023-05-24T01:49:51;100236.63;;;18.13;73.34
75497;BME280;64074;47.540;19.072;2023-05-24T01:52:57;100233.13;;;18.00;74.12
75497;BME280;64074;47.540;19.072;2023-05-24T01:56:10;100229.81;;;17.95;74.23
75497;BME280;64074;47.540;19.072;2023-05-24T01:59:35;100231.84;;;18.10;73.19
75497;BME280;64074;47.540;19.072;2023-05-24T02:02:49;100227.03;;;18.07;73.81
75497;BME280;64074;47.540;19.072;2023-05-24T02:06:11;100233.03;;;18.25;73.25
75497;BME280;64074;47.540;19.072;2023-05-24T02:09:31;100238.41;;;18.21;73.15
75497;BME280;64074;47.540;19.072;2023-05-24T02:12:48;100240.47;;;18.24;73.08
75497;BME280;64074;47.540;19.072;2023-05-24T02:16:15;100240.53;;;18.00;73.91
75497;BME280;64074;47.540;19.072;2023-05-24T02:19:26;100247.00;;;18.20;73.25
75497;BME280;64074;47.540;19.072;2023-05-24T02:22:45;100242.31;;;18.20;73.43
75497;BME280;64074;47.540;19.072;2023-05-24T02:25:48;100242.84;;;18.26;73.72
75497;BME280;64074;47.540;19.072;2023-05-24T02:28:51;100242.66;;;18.19;74.05
75497;BME280;64074;47.540;19.072;2023-05-24T02:31:54;100246.81;;;18.12;74.27
75497;BME280;64074;47.540;19.072;2023-05-24T02:35:03;100247.50;;;18.09;74.21
75497;BME280;64074;47.540;19.072;2023-05-24T02:38:13;100241.84;;;17.78;75.25
75497;BME280;64074;47.540;19.072;2023-05-24T02:41:34;100228.03;;;17.74;75.15
75497;BME280;64074;47.540;19.072;2023-05-24T02:44:56;100219.66;;;17.83;74.77
75497;BME280;64074;47.540;19.072;2023-05-24T02:48:17;100220.94;;;17.86;74.47
75497;BME280;64074;47.540;19.072;2023-05-24T02:51:33;100228.59;;;17.80;74.60
75497;BME280;64074;47.540;19.072;2023-05-24T02:54:42;100235.22;;;17.79;74.83
75497;BME280;64074;47.540;19.072;2023-05-24T02:57:52;100221.97;;;17.81;74.81
75497;BME280;64074;47.540;19.072;2023-05-24T03:00:56;100238.09;;;17.70;75.26
75497;BME280;64074;47.540;19.072;2023-05-24T03:04:03;100234.88;;;17.80;74.64
75497;BME280;64074;47.540;19.072;2023-05-24T03:07:06;100238.66;;;17.76;74.93
75497;BME280;64074;47.540;19.072;2023-05-24T03:10:16;100250.03;;;18.02;74.22
75497;BME280;64074;47.540;19.072;2023-05-24T03:13:37;100250.06;;;17.90;74.38
75497;BME280;64074;47.540;19.072;2023-05-24T03:16:59;100251.31;;;17.93;74.43
75497;BME280;64074;47.540;19.072;2023-05-24T03:20:08;100246.63;;;17.57;75.96
75497;BME280;64074;47.540;19.072;2023-05-24T03:23:23;100248.88;;;18.03;74.34
75497;BME280;64074;47.540;19.072;2023-05-24T03:26:26;100241.13;;;17.93;74.71
75497;BME280;64074;47.540;19.072;2023-05-24T03:29:33;100233.53;;;17.74;75.52
75497;BME280;64074;47.540;19.072;2023-05-24T03:32:39;100241.63;;;17.71;75.67
75497;BME280;64074;47.540;19.072;2023-05-24T03:35:43;100241.59;;;17.83;75.38
75497;BME280;64074;47.540;19.072;2023-05-24T03:38:53;100245.75;;;17.77;75.73
75497;BME280;64074;47.540;19.072;2023-05-24T03:42:20;100237.75;;;17.72;75.96
75497;BME280;64074;47.540;19.072;2023-05-24T03:45:26;100250.53;;;17.80;75.84
75497;BME280;64074;47.540;19.072;2023-05-24T03:48:48;100248.63;;;17.68;76.27
75497;BME280;64074;47.540;19.072;2023-05-24T03:52:17;100255.47;;;17.74;76.41
75497;BME280;64074;47.540;19.072;2023-05-24T03:55:38;100257.16;;;17.79;76.34
75497;BME280;64074;47.540;19.072;2023-05-24T03:58:48;100249.41;;;17.69;76.72
75497;BME280;64074;47.540;19.072;2023-05-24T04:01:52;100262.84;;;17.98;75.87
75497;BME280;64074;47.540;19.072;2023-05-24T04:05:05;100268.25;;;17.70;77.01
75497;BME280;64074;47.540;19.072;2023-05-24T04:08:20;100272.19;;;18.09;75.67
75497;BME280;64074;47.540;19.072;2023-05-24T04:11:49;100276.41;;;18.07;75.94
75497;BME280;64074;47.540;19.072;2023-05-24T04:14:59;100278.81;;;18.08;76.17
75497;BME280;64074;47.540;19.072;2023-05-24T04:18:21;100280.19;;;18.14;75.62
75497;BME280;64074;47.540;19.072;2023-05-24T04:21:40;100289.22;;;18.15;76.09
75497;BME280;64074;47.540;19.072;2023-05-24T04:24:55;100287.72;;;18.18;76.06
75497;BME280;64074;47.540;19.072;2023-05-24T04:27:59;100287.03;;;18.21;75.91
75497;BME280;64074;47.540;19.072;2023-05-24T04:31:01;100297.03;;;17.89;77.52
75497;BME280;64074;47.540;19.072;2023-05-24T04:34:12;100302.38;;;18.09;77.05
75497;BME280;64074;47.540;19.072;2023-05-24T04:37:39;100303.75;;;18.16;76.70
75497;BME280;64074;47.540;19.072;2023-05-24T04:40:55;100299.66;;;17.97;77.57
75497;BME280;64074;47.540;19.072;2023-05-24T04:44:03;100295.56;;;17.91;77.57
75497;BME280;64074;47.540;19.072;2023-05-24T04:47:12;100294.84;;;17.94;77.32
75497;BME280;64074;47.540;19.072;2023-05-24T04:50:28;100293.47;;;18.00;77.71
75497;BME280;64074;47.540;19.072;2023-05-24T04:53:49;100301.72;;;17.76;78.28
75497;BME280;64074;47.540;19.072;2023-05-24T04:57:16;100306.38;;;18.12;77.06
75497;BME280;64074;47.540;19.072;2023-05-24T05:00:37;100304.44;;;18.00;77.04
75497;BME280;64074;47.540;19.072;2023-05-24T05:03:43;100305.63;;;18.27;75.86
75497;BME280;64074;47.540;19.072;2023-05-24T05:06:50;100304.47;;;18.28;76.15
75497;BME280;64074;47.540;19.072;2023-05-24T05:09:57;100318.53;;;18.39;75.67
75497;BME280;64074;47.540;19.072;2023-05-24T05:13:07;100326.72;;;18.51;75.16
75497;BME280;64074;47.540;19.072;2023-05-24T05:16:15;100321.88;;;18.72;74.53
75497;BME280;64074;47.540;19.072;2023-05-24T05:19:18;100322.31;;;18.74;73.99
75497;BME280;64074;47.540;19.072;2023-05-24T05:22:27;100329.31;;;18.72;74.30
75497;BME280;64074;47.540;19.072;2023-05-24T05:25:40;100326.31;;;18.37;75.49
75497;BME280;64074;47.540;19.072;2023-05-24T05:29:06;100319.38;;;18.67;74.20
75497;BME280;64074;47.540;19.072;2023-05-24T05:32:20;100322.09;;;18.39;74.70
75497;BME280;64074;47.540;19.072;2023-05-24T05:35:29;100320.81;;;18.77;73.92
75497;BME280;64074;47.540;19.072;2023-05-24T05:38:40;100321.69;;;18.65;74.49
75497;BME280;64074;47.540;19.072;2023-05-24T05:41:44;100329.97;;;18.41;74.61
75497;BME280;64074;47.540;19.072;2023-05-24T05:44:54;100330.06;;;18.44;75.23
75497;BME280;64074;47.540;19.072;2023-05-24T05:48:04;100334.16;;;18.63;74.03
75497;BME280;64074;47.540;19.072;2023-05-24T05:51:07;100342.28;;;18.87;73.23
75497;BME280;64074;47.540;19.072;2023-05-24T05:54:12;100347.53;;;18.52;73.77
75497;BME280;64074;47.540;19.072;2023-05-24T05:57:20;100339.94;;;18.73;73.75
75497;BME280;64074;47.540;19.072;2023-05-24T06:00:26;100342.31;;;19.03;72.81
75497;BME280;64074;47.540;19.072;2023-05-24T06:03:35;100338.03;;;18.90;73.03
75497;BME280;64074;47.540;19.072;2023-05-24T06:06:50;100346.50;;;19.13;72.46
75497;BME280;64074;47.540;19.072;2023-05-24T06:10:04;100350.31;;;19.24;71.78
75497;BME280;64074;47.540;19.072;2023-05-24T06:13:24;100340.53;;;18.95;72.22
75497;BME280;64074;47.540;19.072;2023-05-24T06:16:41;100350.72;;;18.94;72.52
75497;BME280;64074;47.540;19.072;2023-05-24T06:20:11;100347.94;;;19.22;71.74
75497;BME280;64074;47.540;19.072;2023-05-24T06:23:33;100345.72;;;19.44;71.31
75497;BME280;64074;47.540;19.072;2023-05-24T06:26:50;100354.16;;;19.51;70.76
75497;BME280;64074;47.540;19.072;2023-05-24T06:29:55;100363.47;;;19.46;70.55
75497;BME280;64074;47.540;19.072;2023-05-24T06:33:04;100362.41;;;19.35;70.87
75497;BME280;64074;47.540;19.072;2023-05-24T06:36:13;100366.50;;;19.88;69.32
75497;BME280;64074;47.540;19.072;2023-05-24T06:39:29;100361.09;;;19.92;68.95
75497;BME280;64074;47.540;19.072;2023-05-24T06:42:32;100361.59;;;19.97;68.78
75497;BME280;64074;47.540;19.072;2023-05-24T06:45:37;100380.59;;;20.03;68.04
75497;BME280;64074;47.540;19.072;2023-05-24T06:48:48;100372.09;;;19.76;68.82
75497;BME280;64074;47.540;19.072;2023-05-24T06:56:45;100378.59;;;19.84;68.43
75497;BME280;64074;47.540;19.072;2023-05-24T06:59:49;100377.00;;;19.83;68.32
75497;BME280;64074;47.540;19.072;2023-05-24T07:02:58;100380.72;;;19.75;68.99
75497;BME280;64074;47.540;19.072;2023-05-24T07:06:16;100372.38;;;20.22;66.93
75497;BME280;64074;47.540;19.072;2023-05-24T07:09:26;100375.00;;;20.15;67.12
75497;BME280;64074;47.540;19.072;2023-05-24T07:12:38;100380.06;;;20.13;67.18
75497;BME280;64074;47.540;19.072;2023-05-24T07:15:48;100392.31;;;20.15;66.99
75497;BME280;64074;47.540;19.072;2023-05-24T07:18:55;100385.38;;;20.06;67.32
75497;BME280;64074;47.540;19.072;2023-05-24T07:22:06;100389.13;;;20.13;67.38
75497;BME280;64074;47.540;19.072;2023-05-24T07:25:13;100381.69;;;20.33;66.86
75497;BME280;64074;47.540;19.072;2023-05-24T07:28:20;100385.88;;;20.43;65.77
75497;BME280;64074;47.540;19.072;2023-05-24T07:31:29;100394.94;;;20.43;65.73
75497;BME280;64074;47.540;19.072;2023-05-24T07:34:50;100392.03;;;20.55;65.66
75497;BME280;64074;47.540;19.072;2023-05-24T07:38:12;100392.63;;;20.65;65.33
75497;BME280;64074;47.540;19.072;2023-05-24T07:41:39;100396.66;;;20.51;65.76
75497;BME280;64074;47.540;19.072;2023-05-24T07:44:49;100401.09;;;20.75;65.32
75497;BME280;64074;47.540;19.072;2023-05-24T07:48:16;100395.16;;;21.12;64.04
75497;BME280;64074;47.540;19.072;2023-05-24T07:51:21;100399.16;;;20.95;64.70
75497;BME280;64074;47.540;19.072;2023-05-24T07:54:30;100414.09;;;21.13;63.72
75497;BME280;64074;47.540;19.072;2023-05-24T07:57:35;100403.25;;;21.05;64.06
75497;BME280;64074;47.540;19.072;2023-05-24T08:00:51;100411.19;;;21.26;63.58
75497;BME280;64074;47.540;19.072;2023-05-24T08:04:01;100415.41;;;21.00;64.09
75497;BME280;64074;47.540;19.072;2023-05-24T08:07:08;100412.41;;;20.70;64.41
75497;BME280;64074;47.540;19.072;2023-05-24T08:10:19;100415.53;;;21.27;63.34
75497;BME280;64074;47.540;19.072;2023-05-24T08:13:36;100419.84;;;20.85;63.90
75497;BME280;64074;47.540;19.072;2023-05-24T08:16:56;100429.34;;;20.88;63.20
75497;BME280;64074;47.540;19.072;2023-05-24T08:20:24;100427.41;;;21.50;62.63
75497;BME280;64074;47.540;19.072;2023-05-24T08:23:44;100432.72;;;21.01;63.25
75497;BME280;64074;47.540;19.072;2023-05-24T08:27:06;100433.53;;;21.20;62.74
75497;BME280;64074;47.540;19.072;2023-05-24T08:30:27;100436.81;;;20.87;62.29
75497;BME280;64074;47.540;19.072;2023-05-24T08:33:42;100442.38;;;20.91;62.64
75497;BME280;64074;47.540;19.072;2023-05-24T08:36:46;100450.88;;;20.82;62.34
75497;BME280;64074;47.540;19.072;2023-05-24T08:39:57;100455.13;;;20.80;63.02
75497;BME280;64074;47.540;19.072;2023-05-24T08:47:58;100440.28;;;21.42;60.92
75497;BME280;64074;47.540;19.072;2023-05-24T08:51:02;100451.22;;;21.19;62.08
75497;BME280;64074;47.540;19.072;2023-05-24T08:54:06;100453.50;;;21.33;60.80
75497;BME280;64074;47.540;19.072;2023-05-24T08:57:18;100461.19;;;20.85;62.28
75497;BME280;64074;47.540;19.072;2023-05-24T09:00:42;100456.63;;;21.32;60.89
75497;BME280;64074;47.540;19.072;2023-05-24T09:04:06;100467.72;;;21.35;60.75
75497;BME280;64074;47.540;19.072;2023-05-24T09:07:24;100459.81;;;21.34;60.50
75497;BME280;64074;47.540;19.072;2023-05-24T09:10:45;100463.50;;;21.84;59.59
75497;BME280;64074;47.540;19.072;2023-05-24T09:14:00;100463.41;;;21.57;60.22
75497;BME280;64074;47.540;19.072;2023-05-24T09:17:04;100456.97;;;21.72;59.75
75497;BME280;64074;47.540;19.072;2023-05-24T09:20:14;100461.38;;;22.23;58.55
75497;BME280;64074;47.540;19.072;2023-05-24T09:23:26;100448.00;;;22.25;57.89
75497;BME280;64074;47.540;19.072;2023-05-24T09:26:36;100449.81;;;22.14;57.59
75497;BME280;64074;47.540;19.072;2023-05-24T09:30:07;100444.72;;;22.16;56.96
75497;BME280;64074;47.540;19.072;2023-05-24T09:33:27;100439.94;;;22.69;55.60
75497;BME280;64074;47.540;19.072;2023-05-24T09:36:31;100433.91;;;22.86;54.63
75497;BME280;64074;47.540;19.072;2023-05-24T09:39:44;100440.09;;;22.80;55.67
75497;BME280;64074;47.540;19.072;2023-05-24T09:43:08;100452.53;;;22.36;56.63
75497;BME280;64074;47.540;19.072;2023-05-24T09:46:44;100439.50;;;22.63;56.60
75497;BME280;64074;47.540;19.072;2023-05-24T09:50:07;100438.09;;;23.07;56.19
75497;BME280;64074;47.540;19.072;2023-05-24T09:53:21;100440.94;;;23.14;54.74
75497;BME280;64074;47.540;19.072;2023-05-24T09:56:36;100442.94;;;23.17;54.98
75497;BME280;64074;47.540;19.072;2023-05-24T09:59:51;100446.16;;;23.22;55.06
75497;BME280;64074;47.540;19.072;2023-05-24T10:03:11;100440.25;;;22.90;55.21
75497;BME280;64074;47.540;19.072;2023-05-24T10:06:21;100445.00;;;22.90;54.74
75497;BME280;64074;47.540;19.072;2023-05-24T10:09:42;100443.44;;;22.92;54.93
75497;BME280;64074;47.540;19.072;2023-05-24T10:13:03;100464.13;;;23.36;53.69
75497;BME280;64074;47.540;19.072;2023-05-24T10:16:16;100457.34;;;23.67;51.57
75497;BME280;64074;47.540;19.072;2023-05-24T10:19:26;100472.78;;;24.12;50.97
75497;BME280;64074;47.540;19.072;2023-05-24T10:23:03;100454.25;;;23.75;52.11
75497;BME280;64074;47.540;19.072;2023-05-24T10:26:11;100452.66;;;23.74;51.41
75497;BME280;64074;47.540;19.072;2023-05-24T10:32:54;100447.13;;;23.37;50.48
75497;BME280;64074;47.540;19.072;2023-05-24T10:36:00;100455.97;;;23.53;51.54
75497;BME280;64074;47.540;19.072;2023-05-24T10:39:19;100446.75;;;23.76;49.53
75497;BME280;64074;47.540;19.072;2023-05-24T10:42:31;100442.91;;;23.87;50.16
75497;BME280;64074;47.540;19.072;2023-05-24T10:45:49;100452.28;;;23.76;50.45
75497;BME280;64074;47.540;19.072;2023-05-24T10:49:12;100448.28;;;24.17;50.01
75497;BME280;64074;47.540;19.072;2023-05-24T10:52:35;100440.81;;;24.25;49.27
75497;BME280;64074;47.540;19.072;2023-05-24T10:59:04;100441.56;;;24.18;47.41
75497;BME280;64074;47.540;19.072;2023-05-24T11:02:34;100443.34;;;24.48;47.54
75497;BME280;64074;47.540;19.072;2023-05-24T11:09:49;100441.97;;;24.86;46.73
75497;BME280;64074;47.540;19.072;2023-05-24T11:13:02;100428.53;;;24.88;47.45
75497;BME280;64074;47.540;19.072;2023-05-24T11:16:43;100434.09;;;24.95;47.44
75497;BME280;64074;47.540;19.072;2023-05-24T11:20:07;100434.44;;;24.83;47.54
75497;BME280;64074;47.540;19.072;2023-05-24T11:23:38;100433.66;;;24.82;47.21
75497;BME280;64074;47.540;19.072;2023-05-24T11:27:01;100425.16;;;24.50;48.19
75497;BME280;64074;47.540;19.072;2023-05-24T11:30:21;100413.19;;;25.19;47.06
75497;BME280;64074;47.540;19.072;2023-05-24T11:33:42;100406.16;;;25.71;45.24
75497;BME280;64074;47.540;19.072;2023-05-24T11:36:59;100408.13;;;25.74;44.00
75497;BME280;64074;47.540;19.072;2023-05-24T11:40:14;100419.66;;;25.80;44.11
75497;BME280;64074;47.540;19.072;2023-05-24T11:43:24;100406.56;;;26.05;44.28
75497;BME280;64074;47.540;19.072;2023-05-24T11:46:32;100408.09;;;26.39;43.11
75497;BME280;64074;47.540;19.072;2023-05-24T11:49:41;100395.22;;;26.87;43.19
75497;BME280;64074;47.540;19.072;2023-05-24T11:53:01;100400.38;;;26.89;43.01
75497;BME280;64074;47.540;19.072;2023-05-24T11:56:15;100405.19;;;26.81;43.20
75497;BME280;64074;47.540;19.072;2023-05-24T11:59:40;100405.22;;;27.47;41.79
75497;BME280;64074;47.540;19.072;2023-05-24T12:02:57;100397.38;;;27.35;41.46
75497;BME280;64074;47.540;19.072;2023-05-24T12:06:20;100408.63;;;28.21;39.61
75497;BME280;64074;47.540;19.072;2023-05-24T12:09:24;100407.19;;;28.81;37.47
75497;BME280;64074;47.540;19.072;2023-05-24T12:12:29;100406.03;;;28.78;38.22
75497;BME280;64074;47.540;19.072;2023-05-24T12:15:55;100401.03;;;29.54;36.51
75497;BME280;64074;47.540;19.072;2023-05-24T12:19:07;100403.84;;;28.59;38.05
75497;BME280;64074;47.540;19.072;2023-05-24T12:22:36;100403.16;;;28.86;37.84
75497;BME280;64074;47.540;19.072;2023-05-24T12:25:45;100412.22;;;27.14;40.18
75497;BME280;64074;47.540;19.072;2023-05-24T12:28:55;100404.69;;;27.08;40.88
75497;BME280;64074;47.540;19.072;2023-05-24T12:32:24;100403.34;;;28.68;38.17
75497;BME280;64074;47.540;19.072;2023-05-24T12:35:29;100382.28;;;30.21;35.81
75497;BME280;64074;47.540;19.072;2023-05-24T12:38:49;100401.13;;;27.70;40.03
75497;BME280;64074;47.540;19.072;2023-05-24T12:41:58;100393.06;;;28.61;38.39
75497;BME280;64074;47.540;19.072;2023-05-24T12:45:06;100387.28;;;29.09;36.72
75497;BME280;64074;47.540;19.072;2023-05-24T12:48:15;100384.63;;;29.56;35.87
75497;BME280;64074;47.540;19.072;2023-05-24T12:51:26;100387.16;;;28.90;37.08
75497;BME280;64074;47.540;19.072;2023-05-24T12:54:37;100379.69;;;29.64;35.90
75497;BME280;64074;47.540;19.072;2023-05-24T12:57:49;100386.16;;;29.84;35.17
75497;BME280;64074;47.540;19.072;2023-05-24T13:01:03;100388.47;;;28.44;37.46
75497;BME280;64074;47.540;19.072;2023-05-24T13:04:11;100374.22;;;29.03;37.43
75497;BME280;64074;47.540;19.072;2023-05-24T13:07:17;100366.59;;;30.08;34.46
75497;BME280;64074;47.540;19.072;2023-05-24T13:10:22;100370.31;;;31.00;32.69
75497;BME280;64074;47.540;19.072;2023-05-24T13:13:32;100378.38;;;31.34;32.75
75497;BME280;64074;47.540;19.072;2023-05-24T13:16:51;100373.03;;;29.58;34.84
75497;BME280;64074;47.540;19.072;2023-05-24T13:20:09;100373.88;;;30.25;33.68
75497;BME280;64074;47.540;19.072;2023-05-24T13:23:34;100374.91;;;30.11;34.03
75497;BME280;64074;47.540;19.072;2023-05-24T13:26:51;100370.63;;;30.26;33.47
75497;BME280;64074;47.540;19.072;2023-05-24T13:29:57;100371.19;;;28.90;36.63
75497;BME280;64074;47.540;19.072;2023-05-24T13:33:09;100362.72;;;30.21;34.07
75497;BME280;64074;47.540;19.072;2023-05-24T13:36:19;100361.91;;;32.01;31.10
75497;BME280;64074;47.540;19.072;2023-05-24T13:39:41;100363.25;;;32.26;30.43
75497;BME280;64074;47.540;19.072;2023-05-24T13:42:59;100356.38;;;31.98;29.97
75497;BME280;64074;47.540;19.072;2023-05-24T13:46:25;100364.06;;;30.76;32.59
75497;BME280;64074;47.540;19.072;2023-05-24T13:49:52;100352.00;;;31.32;31.58
75497;BME280;64074;47.540;19.072;2023-05-24T13:53:07;100347.97;;;31.65;31.35
75497;BME280;64074;47.540;19.072;2023-05-24T13:56:16;100351.34;;;32.05;30.41
75497;BME280;64074;47.540;19.072;2023-05-24T13:59:33;100351.63;;;30.57;32.85
75497;BME280;64074;47.540;19.072;2023-05-24T14:02:37;100353.63;;;32.39;30.25
75497;BME280;64074;47.540;19.072;2023-05-24T14:05:49;100348.69;;;31.86;30.64
75497;BME280;64074;47.540;19.072;2023-05-24T14:09:10;100348.25;;;31.38;31.28
75497;BME280;64074;47.540;19.072;2023-05-24T14:12:32;100349.69;;;31.10;32.08
75497;BME280;64074;47.540;19.072;2023-05-24T14:15:52;100343.03;;;31.73;31.06
75497;BME280;64074;47.540;19.072;2023-05-24T14:19:14;100340.06;;;31.11;31.77
75497;BME280;64074;47.540;19.072;2023-05-24T14:22:27;100350.50;;;32.37;29.82
75497;BME280;64074;47.540;19.072;2023-05-24T14:25:53;100357.16;;;30.81;31.88
75497;BME280;64074;47.540;19.072;2023-05-24T14:29:13;100357.63;;;31.48;31.74
75497;BME280;64074;47.540;19.072;2023-05-24T14:32:31;100357.50;;;30.83;32.65
75497;BME280;64074;47.540;19.072;2023-05-24T14:35:39;100358.75;;;30.62;32.82
75497;BME280;64074;47.540;19.072;2023-05-24T14:38:48;100353.47;;;29.04;35.54
75497;BME280;64074;47.540;19.072;2023-05-24T14:41:56;100358.81;;;28.61;36.04
75497;BME280;64074;47.540;19.072;2023-05-24T14:45:00;100357.63;;;28.58;36.74
75497;BME280;64074;47.540;19.072;2023-05-24T14:48:08;100358.28;;;28.69;36.70
75497;BME280;64074;47.540;19.072;2023-05-24T14:51:18;100370.59;;;28.72;36.13
75497;BME280;64074;47.540;19.072;2023-05-24T14:54:22;100373.56;;;27.27;39.01
75497;BME280;64074;47.540;19.072;2023-05-24T14:57:26;100365.06;;;26.75;40.19
75497;BME280;64074;47.540;19.072;2023-05-24T15:00:35;100366.25;;;26.74;40.35
75497;BME280;64074;47.540;19.072;2023-05-24T15:03:56;100366.69;;;26.69;40.46
75497;BME280;64074;47.540;19.072;2023-05-24T15:07:06;100378.53;;;26.87;41.00
75497;BME280;64074;47.540;19.072;2023-05-24T15:10:09;100387.31;;;26.79;40.32
75497;BME280;64074;47.540;19.072;2023-05-24T15:13:12;100381.88;;;26.40;40.62
75497;BME280;64074;47.540;19.072;2023-05-24T15:16:16;100373.06;;;26.62;40.34
75497;BME280;64074;47.540;19.072;2023-05-24T15:19:24;100383.94;;;25.82;41.03
75497;BME280;64074;47.540;19.072;2023-05-24T15:22:34;100382.34;;;25.99;41.66
75497;BME280;64074;47.540;19.072;2023-05-24T15:25:55;100379.19;;;25.68;42.75
75497;BME280;64074;47.540;19.072;2023-05-24T15:29:16;100378.41;;;25.82;42.30
75497;BME280;64074;47.540;19.072;2023-05-24T15:32:43;100385.06;;;26.24;41.63
75497;BME280;64074;47.540;19.072;2023-05-24T15:35:59;100383.94;;;26.07;42.04
75497;BME280;64074;47.540;19.072;2023-05-24T15:39:22;100396.59;;;26.22;41.47
75497;BME280;64074;47.540;19.072;2023-05-24T15:42:38;100383.53;;;25.91;41.99
75497;BME280;64074;47.540;19.072;2023-05-24T15:45:47;100382.31;;;25.45;42.33
75497;BME280;64074;47.540;19.072;2023-05-24T15:48:58;100386.72;;;25.71;41.58
75497;BME280;64074;47.540;19.072;2023-05-24T15:52:08;100379.16;;;25.75;41.26
75497;BME280;64074;47.540;19.072;2023-05-24T15:55:12;100384.25;;;25.17;42.92
75497;BME280;64074;47.540;19.072;2023-05-24T15:58:16;100385.91;;;25.53;41.91
75497;BME280;64074;47.540;19.072;2023-05-24T16:01:26;100378.78;;;25.77;41.43
75497;BME280;64074;47.540;19.072;2023-05-24T16:04:35;100384.75;;;25.86;41.65
75497;BME280;64074;47.540;19.072;2023-05-24T16:07:39;100377.97;;;25.59;41.42
75497;BME280;64074;47.540;19.072;2023-05-24T16:10:48;100399.69;;;25.07;43.07
75497;BME280;64074;47.540;19.072;2023-05-24T16:13:59;100402.53;;;24.41;44.67
75497;BME280;64074;47.540;19.072;2023-05-24T16:17:03;100392.78;;;24.76;43.86
75497;BME280;64074;47.540;19.072;2023-05-24T16:20:10;100398.94;;;24.30;44.09
75497;BME280;64074;47.540;19.072;2023-05-24T16:23:19;100405.78;;;23.99;44.59
75497;BME280;64074;47.540;19.072;2023-05-24T16:26:26;100398.34;;;23.59;45.64
75497;BME280;64074;47.540;19.072;2023-05-24T16:29:32;100397.06;;;23.97;45.26
75497;BME280;64074;47.540;19.072;2023-05-24T16:32:41;100415.34;;;24.67;43.81
75497;BME280;64074;47.540;19.072;2023-05-24T16:35:53;100409.84;;;24.12;44.76
75497;BME280;64074;47.540;19.072;2023-05-24T16:39:10;100418.97;;;24.13;45.20
75497;BME280;64074;47.540;19.072;2023-05-24T16:42:37;100420.59;;;24.90;43.38
75497;BME280;64074;47.540;19.072;2023-05-24T16:45:46;100433.38;;;25.05;42.91
75497;BME280;64074;47.540;19.072;2023-05-24T16:48:55;100428.53;;;24.92;43.57
75497;BME280;64074;47.540;19.072;2023-05-24T16:52:02;100435.44;;;25.44;42.30
75497;BME280;64074;47.540;19.072;2023-05-24T16:55:11;100425.47;;;25.22;43.83
75497;BME280;64074;47.540;19.072;2023-05-24T16:58:25;100435.88;;;25.57;42.79
75497;BME280;64074;47.540;19.072;2023-05-24T17:01:32;100433.84;;;25.29;43.86
75497;BME280;64074;47.540;19.072;2023-05-24T17:04:41;100438.97;;;25.23;44.37